Time;durP1;ratioP1;P1;durP2;ratioP2;P2;SDS_P1;SDS_P2;PMS_P1;PMS_P2;Temp;Humidity;BMP_temperature;BMP_pressure;BME280_temperature;BME280_humidity;BME280_pressure;Samples;Min_cycle;Max_cycle;Signal;HPM_P1;HPM_P2
2021/12/19 00:04:28;;;;;;;10.73;5.93;;;;;;;2.60;100.00;101262.06;4904216;29;20513;-87
2021/12/19 00:09:38;;;;;;;12.15;6.95;;;;;;;2.35;100.00;101245.28;4914966;29;20032;-87
2021/12/19 00:12:05;;;;;;;7.45;5.38;;;;;;;2.54;100.00;101250.28;4896275;29;20069;-86
2021/12/19 00:14:31;;;;;;;5.50;4.40;;;;;;;2.84;100.00;101256.38;4906989;29;20044;-86
2021/12/19 00:17:00;;;;;;;6.13;4.40;;;;;;;2.86;100.00;101249.34;4897720;29;20040;-88
2021/12/19 00:19:25;;;;;;;5.75;4.05;;;;;;;2.74;100.00;101234.50;4935421;29;20098;-88
2021/12/19 00:21:51;;;;;;;4.93;3.13;;;;;;;2.89;100.00;101249.16;4894658;29;20605;-88
2021/12/19 00:24:19;;;;;;;5.72;4.00;;;;;;;3.23;100.00;101252.38;4892789;29;20036;-88
2021/12/19 00:26:45;;;;;;;4.18;3.10;;;;;;;3.17;100.00;101241.50;4909907;29;20037;-88
2021/12/19 00:29:11;;;;;;;3.45;2.30;;;;;;;3.46;100.00;101231.16;4909896;29;20044;-87
2021/12/19 00:31:37;;;;;;;4.63;2.97;;;;;;;3.73;100.00;101228.59;4910324;29;20172;-90
2021/12/19 00:34:04;;;;;;;3.05;2.38;;;;;;;3.59;100.00;101216.47;4890824;29;20447;-87
2021/12/19 00:36:30;;;;;;;3.38;2.50;;;;;;;3.50;100.00;101215.25;4921242;29;20036;-86
2021/12/19 00:38:56;;;;;;;3.72;2.70;;;;;;;3.42;100.00;101227.91;4928903;29;20043;-88
2021/12/19 00:41:22;;;;;;;14.77;8.57;;;;;;;3.17;100.00;101233.72;4921711;29;20029;-88
2021/12/19 00:44:08;;;;;;;25.60;14.88;;;;;;;2.88;100.00;101231.13;4914064;29;20036;-87
2021/12/19 00:46:43;;;;;;;30.20;16.65;;;;;;;2.79;100.00;101251.47;4908936;29;20024;-87
2021/12/19 00:49:09;;;;;;;39.35;21.65;;;;;;;2.63;100.00;101241.16;4914413;29;20040;-88
2021/12/19 00:51:35;;;;;;;43.30;24.85;;;;;;;2.43;100.00;101237.09;4911367;29;20064;-88
2021/12/19 00:54:00;;;;;;;36.90;22.90;;;;;;;2.21;100.00;101220.16;4910557;29;20098;-87
2021/12/19 00:56:26;;;;;;;35.63;20.30;;;;;;;2.17;100.00;101217.84;4898196;29;20036;-87
2021/12/19 00:58:52;;;;;;;32.60;19.33;;;;;;;2.07;100.00;101218.34;4911383;29;20040;-88
2021/12/19 01:01:18;;;;;;;38.17;21.27;;;;;;;2.03;100.00;101240.16;4906351;29;20047;-89
2021/12/19 01:03:46;;;;;;;36.42;21.42;;;;;;;1.87;100.00;101221.19;4910418;29;20039;-88
2021/12/19 01:06:16;;;;;;;46.45;23.70;;;;;;;1.84;100.00;101238.56;4900655;29;20036;-88
2021/12/19 01:08:41;;;;;;;43.40;24.85;;;;;;;1.69;100.00;101222.13;4894445;29;20059;-88
2021/12/19 01:11:07;;;;;;;49.45;26.02;;;;;;;1.69;100.00;101232.47;4911652;29;20032;-88
2021/12/19 01:13:34;;;;;;;45.95;25.77;;;;;;;1.71;100.00;101220.28;4908507;29;20047;-88
2021/12/19 01:16:01;;;;;;;40.47;23.45;;;;;;;1.72;100.00;101226.28;4914704;29;20032;-89
2021/12/19 01:18:28;;;;;;;42.83;24.38;;;;;;;1.70;100.00;101223.78;4913175;29;20028;-89
2021/12/19 01:20:54;;;;;;;41.95;24.30;;;;;;;1.60;100.00;101211.41;4891943;29;20442;-89
2021/12/19 01:23:22;;;;;;;41.70;24.70;;;;;;;1.56;100.00;101211.56;4897207;29;20032;-88
2021/12/19 01:25:50;;;;;;;47.13;26.70;;;;;;;1.53;100.00;101222.09;4911983;29;20499;-89
2021/12/19 01:28:16;;;;;;;52.50;29.77;;;;;;;1.40;100.00;101218.50;4907762;29;20080;-88
2021/12/19 01:30:43;;;;;;;55.83;29.10;;;;;;;1.34;100.00;101216.22;4891389;29;20032;-90
2021/12/19 01:33:08;;;;;;;62.58;30.65;;;;;;;1.26;100.00;101207.09;4910035;29;20032;-89
2021/12/19 01:35:34;;;;;;;51.45;30.27;;;;;;;1.11;100.00;101189.78;4911900;29;20039;-88
2021/12/19 01:38:00;;;;;;;51.58;29.70;;;;;;;1.15;100.00;101191.28;4910572;29;20036;-87
2021/12/19 01:40:26;;;;;;;47.88;28.25;;;;;;;1.11;100.00;101180.28;4892618;29;20079;-87
2021/12/19 01:42:55;;;;;;;49.63;26.25;;;;;;;1.20;100.00;101202.25;4893205;29;20091;-87
2021/12/19 01:45:37;;;;;;;45.35;25.35;;;;;;;1.23;100.00;101217.63;4908010;29;20036;-88
2021/12/19 01:48:06;;;;;;;41.35;22.27;;;;;;;1.24;100.00;101208.94;4892021;29;20084;-86
2021/12/19 01:50:33;;;;;;;24.40;14.75;;;;;;;1.38;100.00;101202.22;4886633;29;20115;-87
2021/12/19 01:53:01;;;;;;;22.83;13.52;;;;;;;1.50;100.00;101209.31;4888709;29;20032;-88
2021/12/19 01:55:29;;;;;;;20.70;12.45;;;;;;;1.50;100.00;101200.72;4895688;29;20392;-88
2021/12/19 01:57:55;;;;;;;25.20;15.25;;;;;;;1.49;100.00;101199.88;4915400;29;20443;-89
2021/12/19 02:00:34;;;;;;;27.60;16.52;;;;;;;1.53;100.00;101210.91;4907228;29;20036;-88
2021/12/19 02:02:59;;;;;;;33.78;20.25;;;;;;;1.47;100.00;101213.81;4910568;29;20028;-88
2021/12/19 02:05:27;;;;;;;31.05;18.42;;;;;;;1.43;100.00;101220.91;4895747;29;20124;-87
2021/12/19 02:07:53;;;;;;;32.58;19.10;;;;;;;1.34;100.00;101208.44;4907442;29;20060;-88
2021/12/19 02:10:22;;;;;;;34.58;19.98;;;;;;;1.23;100.00;101204.69;4903598;29;20487;-87
2021/12/19 02:12:49;;;;;;;37.53;22.38;;;;;;;1.24;100.00;101201.19;4894670;29;20070;-87
2021/12/19 02:15:21;;;;;;;40.00;22.33;;;;;;;1.10;100.00;101182.94;4890863;29;20049;-88
2021/12/19 02:17:50;;;;;;;39.17;22.17;;;;;;;1.12;100.00;101197.47;4891737;29;20037;-88
2021/12/19 02:20:18;;;;;;;45.55;24.10;;;;;;;1.13;100.00;101208.66;4906703;29;20530;-88
2021/12/19 02:22:44;;;;;;;40.00;21.83;;;;;;;1.06;100.00;101194.38;4889820;29;20069;-89
2021/12/19 02:25:11;;;;;;;41.20;22.27;;;;;;;1.10;100.00;101211.41;4904549;29;20025;-87
2021/12/19 02:27:40;;;;;;;40.90;22.77;;;;;;;1.13;100.00;101203.47;4891041;29;20035;-89
2021/12/19 02:30:08;;;;;;;44.75;23.83;;;;;;;1.08;100.00;101195.97;4906452;29;20048;-86
2021/12/19 02:32:36;;;;;;;39.45;22.75;;;;;;;1.13;100.00;101209.50;4891286;29;20040;-90
2021/12/19 02:35:09;;;;;;;38.67;21.95;;;;;;;1.12;100.00;101197.47;4905836;29;20064;-87
2021/12/19 02:48:18;;;;;;;33.00;16.85;;;;;;;1.13;100.00;101187.97;4921698;29;20039;-88
2021/12/19 02:50:49;;;;;;;34.33;16.17;;;;;;;0.95;100.00;101169.06;4913745;29;20829;-88
2021/12/19 02:53:17;;;;;;;30.40;15.57;;;;;;;1.08;100.00;101195.97;4896980;29;20055;-88
2021/12/19 02:55:43;;;;;;;32.17;15.77;;;;;;;0.96;100.00;101170.75;4908775;29;20398;-89
2021/12/19 02:58:10;;;;;;;31.58;13.90;;;;;;;0.91;100.00;101172.72;4911575;29;20035;-88
2021/12/19 03:00:37;;;;;;;28.83;14.68;;;;;;;0.98;100.00;101180.09;4912011;29;20063;-86
2021/12/19 03:03:03;;;;;;;29.27;15.50;;;;;;;0.94;100.00;101172.56;4907107;29;20395;-90
2021/12/19 03:05:31;;;;;;;28.65;13.63;;;;;;;0.93;100.00;101169.13;4909210;29;20028;-88
2021/12/19 03:07:58;;;;;;;24.15;12.98;;;;;;;0.91;100.00;101163.22;4911050;29;20550;-86
2021/12/19 03:13:20;;;;;;;31.50;15.18;;;;;;;0.93;100.00;101169.13;4910610;29;20076;-86
2021/12/19 03:18:31;;;;;;;26.30;14.15;;;;;;;0.96;100.00;101168.16;4923332;29;19916;-90
2021/12/19 03:20:57;;;;;;;31.85;14.85;;;;;;;0.92;100.00;101143.38;4893744;29;20032;-87
2021/12/19 03:23:27;;;;;;;24.02;13.57;;;;;;;0.92;100.00;101144.19;4904779;29;20039;-87
2021/12/19 03:25:54;;;;;;;24.13;12.95;;;;;;;0.82;100.00;101138.66;4914784;29;20400;-87
2021/12/19 03:28:20;;;;;;;34.75;15.90;;;;;;;0.88;100.00;101136.66;4907774;29;20036;-86
2021/12/19 03:30:47;;;;;;;24.70;12.80;;;;;;;1.08;100.00;101162.34;4890337;29;20475;-87
2021/12/19 03:33:14;;;;;;;27.98;15.77;;;;;;;1.02;100.00;101159.25;4904304;29;20520;-87
2021/12/19 03:35:41;;;;;;;29.63;15.52;;;;;;;0.84;100.00;101144.59;4913120;29;20040;-87
2021/12/19 03:38:09;;;;;;;32.58;15.82;;;;;;;0.92;100.00;101156.31;4907804;29;20032;-86
2021/12/19 03:40:38;;;;;;;34.75;16.13;;;;;;;0.84;100.00;101159.28;4896214;29;20036;-87
2021/12/19 03:43:13;;;;;;;31.15;16.27;;;;;;;0.66;100.00;101128.28;4906785;29;20032;-88
2021/12/19 03:45:40;;;;;;;31.05;16.00;;;;;;;0.63;100.00;101125.84;4907597;29;20027;-86
2021/12/19 03:48:11;;;;;;;39.45;20.40;;;;;;;0.73;100.00;101152.06;4906667;29;20505;-88
2021/12/19 03:50:38;;;;;;;34.60;18.20;;;;;;;0.58;100.00;101130.41;4908060;29;20431;-90
2021/12/19 03:53:04;;;;;;;30.30;17.45;;;;;;;0.47;100.00;101122.38;4909437;29;20475;-88
2021/12/19 03:55:29;;;;;;;36.70;20.05;;;;;;;0.54;100.00;101137.50;4912468;29;20032;-87
2021/12/19 03:57:57;;;;;;;33.55;19.02;;;;;;;0.52;100.00;101146.22;4913106;29;20024;-87
2021/12/19 04:00:26;;;;;;;40.03;20.55;;;;;;;0.39;100.00;101126.19;4909406;29;20035;-87
2021/12/19 04:02:54;;;;;;;45.00;23.83;;;;;;;0.43;100.00;101137.19;4911482;29;20483;-87
2021/12/19 04:05:20;;;;;;;45.03;21.58;;;;;;;0.45;100.00;101139.72;4905845;29;20493;-88
2021/12/19 04:07:46;;;;;;;40.38;20.45;;;;;;;0.47;100.00;101112.84;4892692;29;20040;-88
2021/12/19 04:10:12;;;;;;;33.97;18.38;;;;;;;0.63;100.00;101125.00;4890701;29;20444;-86
2021/12/19 04:12:38;;;;;;;28.05;15.60;;;;;;;0.78;100.00;101133.72;4904998;29;20096;-88
2021/12/19 04:15:07;;;;;;;21.75;12.07;;;;;;;1.01;100.00;101126.53;4901454;29;20047;-88
2021/12/19 04:17:33;;;;;;;27.02;15.50;;;;;;;0.92;100.00;101122.69;4903600;29;20024;-87
2021/12/19 04:20:01;;;;;;;29.48;15.65;;;;;;;0.83;100.00;101116.25;4915589;29;20036;-86
2021/12/19 04:22:27;;;;;;;23.23;10.38;;;;;;;1.04;100.00;101116.84;4915762;29;20084;-86
2021/12/19 04:24:54;;;;;;;20.00;9.73;;;;;;;1.41;100.00;101140.75;4893165;29;20047;-87
2021/12/19 04:27:20;;;;;;;16.90;9.95;;;;;;;1.68;100.00;101131.56;4916212;29;20029;-86
2021/12/19 04:29:46;;;;;;;18.77;9.82;;;;;;;1.90;100.00;101132.97;4912822;29;20108;-87
2021/12/19 04:32:12;;;;;;;17.75;9.98;;;;;;;1.97;100.00;101136.91;4906184;29;20033;-86
2021/12/19 04:34:38;;;;;;;17.25;9.57;;;;;;;2.05;100.00;101133.84;4893346;29;20040;-85
2021/12/19 04:37:20;;;;;;;20.60;10.75;;;;;;;1.99;100.00;101132.47;4907020;29;20033;-86
2021/12/19 04:40:04;;;;;;;37.45;16.77;;;;;;;1.84;100.00;101137.56;4910381;29;20039;-88
2021/12/19 04:53:51;;;;;;;27.88;15.30;;;;;;;0.79;100.00;101130.25;4908398;29;20562;-87
2021/12/19 05:14:34;;;;;;;23.00;9.13;;;;;;;2.52;100.00;101109.53;4908281;29;20040;-88
2021/12/19 05:17:05;;;;;;;24.20;9.13;;;;;;;2.62;100.00;101109.84;4907208;29;20110;-88
2021/12/19 05:19:44;;;;;;;19.40;9.25;;;;;;;2.67;100.00;101115.56;4907557;29;20039;-88
2021/12/19 05:22:10;;;;;;;23.73;8.73;;;;;;;2.76;100.00;101114.19;4907574;29;20390;-89
2021/12/19 05:25:00;;;;;;;18.42;8.85;;;;;;;2.64;100.00;101099.34;4892648;29;20036;-89
2021/12/19 05:27:26;;;;;;;17.50;8.45;;;;;;;2.59;100.00;101102.25;4893485;29;20483;-89
2021/12/19 05:29:51;;;;;;;19.70;8.40;;;;;;;2.37;100.00;101087.97;4912515;29;20043;-87
2021/12/19 05:32:17;;;;;;;14.90;7.47;;;;;;;2.22;100.00;101088.84;4905303;29;20036;-87
2021/12/19 05:34:42;;;;;;;20.95;9.73;;;;;;;2.05;100.00;101097.59;4909940;29;20036;-88
2021/12/19 05:45:44;;;;;;;25.25;13.23;;;;;;;1.23;100.00;101096.03;4909142;29;20131;-87
2021/12/19 05:48:09;;;;;;;30.70;13.68;;;;;;;1.01;100.00;101085.97;4910624;29;20457;-89
2021/12/19 05:50:37;;;;;;;25.15;12.32;;;;;;;0.97;100.00;101087.06;4892597;29;20506;-88
2021/12/19 05:53:02;;;;;;;32.60;14.13;;;;;;;0.93;100.00;101081.22;4910816;29;20056;-87
2021/12/19 05:55:28;;;;;;;32.17;14.40;;;;;;;0.97;100.00;101085.31;4892472;29;20040;-87
2021/12/19 05:57:55;;;;;;;38.72;15.15;;;;;;;1.21;100.00;101087.50;4889590;29;20052;-87
2021/12/19 06:00:21;;;;;;;38.05;16.80;;;;;;;1.45;100.00;101094.00;4889787;29;20028;-87
2021/12/19 06:02:47;;;;;;;40.97;18.13;;;;;;;1.61;100.00;101083.66;4903018;29;20045;-88
2021/12/19 06:05:13;;;;;;;50.17;21.63;;;;;;;1.73;100.00;101077.78;4892851;29;20028;-87
2021/12/19 06:07:40;;;;;;;49.38;21.08;;;;;;;1.98;100.00;101100.53;4907863;29;20044;-87
2021/12/19 06:10:06;;;;;;;61.42;23.50;;;;;;;2.03;100.00;101078.72;4888857;29;20036;-87
2021/12/19 06:12:32;;;;;;;62.60;22.77;;;;;;;2.16;100.00;101097.81;4908945;29;20029;-88
2021/12/19 06:14:58;;;;;;;52.90;21.98;;;;;;;2.18;100.00;101077.00;4888279;29;20049;-89
2021/12/19 06:17:24;;;;;;;62.72;24.02;;;;;;;2.16;100.00;101074.50;4886553;29;20502;-87
2021/12/19 06:19:49;;;;;;;54.85;21.92;;;;;;;2.18;100.00;101074.41;4909357;29;20199;-90
2021/12/19 06:22:15;;;;;;;59.70;23.27;;;;;;;2.24;100.00;101080.03;4907343;29;20037;-87
2021/12/19 06:24:41;;;;;;;57.67;21.83;;;;;;;2.20;100.00;101075.16;4912919;29;20028;-89
2021/12/19 06:27:06;;;;;;;53.47;21.70;;;;;;;2.19;100.00;101068.31;4908080;29;20506;-89
2021/12/19 06:29:32;;;;;;;59.75;23.73;;;;;;;2.18;100.00;101069.22;4897497;29;20501;-88
2021/12/19 06:31:58;;;;;;;55.17;22.13;;;;;;;2.24;100.00;101087.81;4893089;29;20067;-88
2021/12/19 06:34:24;;;;;;;58.03;22.23;;;;;;;2.27;100.00;101085.06;4910064;29;20028;-88
2021/12/19 06:36:53;;;;;;;62.63;23.65;;;;;;;2.27;100.00;101081.63;4888165;29;20582;-89
2021/12/19 06:39:20;;;;;;;58.67;22.63;;;;;;;2.26;100.00;101079.97;4901494;29;20449;-89
2021/12/19 06:41:46;;;;;;;55.83;24.58;;;;;;;2.30;100.00;101084.03;4899827;29;20110;-88
2021/12/19 06:44:12;;;;;;;61.97;24.17;;;;;;;2.25;100.00;101073.13;4916574;29;20475;-88
2021/12/19 06:46:37;;;;;;;68.32;27.17;;;;;;;2.20;100.00;101075.16;4912157;29;20079;-87
2021/12/19 06:49:03;;;;;;;57.50;23.48;;;;;;;2.16;100.00;101064.13;4912902;29;20372;-89
2021/12/19 06:51:30;;;;;;;68.80;26.75;;;;;;;2.24;100.00;101080.03;4911337;29;20040;-87
2021/12/19 06:53:56;;;;;;;83.70;28.55;;;;;;;2.10;100.00;101048.94;4912566;29;20123;-88
2021/12/19 06:56:22;;;;;;;71.90;27.23;;;;;;;2.21;100.00;101080.22;4889920;29;20119;-87
2021/12/19 06:58:47;;;;;;;57.03;25.83;;;;;;;2.21;100.00;101087.19;4892449;29;20147;-88
2021/12/19 07:01:13;;;;;;;351.63;42.22;;;;;;;1.92;100.00;101056.88;4909205;29;20427;-87
2021/12/19 07:03:39;;;;;;;67.32;25.55;;;;;;;1.80;100.00;101067.91;4909926;29;20039;-88
2021/12/19 07:06:04;;;;;;;59.63;22.83;;;;;;;1.62;100.00;101069.78;4891055;29;20505;-90
2021/12/19 07:08:30;;;;;;;69.72;28.13;;;;;;;1.59;100.00;101075.16;4896055;29;20028;-88
2021/12/19 07:10:55;;;;;;;86.10;29.92;;;;;;;1.54;100.00;101081.38;4900615;29;20043;-88
2021/12/19 07:13:21;;;;;;;52.53;22.25;;;;;;;1.43;100.00;101081.16;4885587;29;20404;-86
2021/12/19 07:15:48;;;;;;;55.58;24.05;;;;;;;1.34;100.00;101069.56;4893258;29;20056;-87
2021/12/19 07:18:14;;;;;;;95.28;25.83;;;;;;;1.09;100.00;101059.72;4917680;29;20067;-87
2021/12/19 07:20:43;;;;;;;53.08;22.50;;;;;;;0.95;100.00;101060.47;4915672;29;20127;-88
2021/12/19 07:23:21;;;;;;;50.00;20.90;;;;;;;0.94;100.00;101075.13;4912143;29;20080;-88
2021/12/19 07:25:47;;;;;;;44.08;20.08;;;;;;;0.85;100.00;101065.28;4892932;29;20069;-87
2021/12/19 07:28:13;;;;;;;37.05;18.13;;;;;;;0.81;100.00;101064.59;4911362;29;20158;-88
2021/12/19 07:30:40;;;;;;;44.17;19.48;;;;;;;0.64;100.00;101049.13;4913312;29;20066;-87
2021/12/19 07:33:07;;;;;;;36.85;17.67;;;;;;;0.57;100.00;101051.19;4907704;29;20060;-89
2021/12/19 07:35:40;;;;;;;41.80;19.85;;;;;;;0.52;100.00;101046.28;4897819;29;20456;-88
2021/12/19 07:38:11;;;;;;;41.05;19.73;;;;;;;0.40;100.00;101040.00;4916659;29;20044;-83
2021/12/19 07:40:39;;;;;;;47.42;18.38;;;;;;;0.47;100.00;101050.03;4909281;29;20051;-84
2021/12/19 07:43:10;;;;;;;218.98;29.77;;;;;;;0.38;100.00;101062.47;4888735;29;20479;-85
2021/12/19 07:45:37;;;;;;;174.02;28.35;;;;;;;0.41;100.00;101054.59;4906659;29;20084;-83
2021/12/19 07:48:04;;;;;;;61.92;19.10;;;;;;;0.35;100.00;101054.91;4896942;29;20486;-82
2021/12/19 07:50:31;;;;;;;32.92;16.02;;;;;;;0.42;100.00;101058.84;4891562;29;20028;-84
2021/12/19 07:52:57;;;;;;;490.00;39.53;;;;;;;0.24;100.00;101070.94;4913437;29;20043;-82
2021/12/19 07:55:24;;;;;;;82.53;20.00;;;;;;;0.29;100.00;101060.38;4910736;29;20028;-83
2021/12/19 07:57:50;;;;;;;71.30;18.60;;;;;;;0.44;100.00;101076.03;4894300;29;20041;-84
2021/12/19 08:00:18;;;;;;;202.65;25.23;;;;;;;0.28;100.00;101046.63;4890843;29;20032;-84
2021/12/19 08:02:45;;;;;;;107.88;19.05;;;;;;;0.48;100.00;101086.09;4887128;29;20310;-83
2021/12/19 08:05:11;;;;;;;28.70;14.13;;;;;;;0.56;100.00;101085.72;4909958;29;20024;-84
2021/12/19 08:07:39;;;;;;;180.85;24.33;;;;;;;0.59;100.00;101082.16;4889796;29;20036;-83
2021/12/19 08:11:39;;;;;;;343.33;33.45;;;;;;;0.51;100.00;101085.97;4906181;29;20033;-83
2021/12/19 08:13:03;;;;;;;715.55;58.75;;;;;;;0.44;100.00;101081.19;4908751;29;20045;-83
2021/12/19 08:15:37;;;;;;;215.55;27.25;;;;;;;0.49;100.00;101089.53;4906948;29;20040;-84
2021/12/19 08:18:04;;;;;;;117.82;20.88;;;;;;;0.56;100.00;101091.72;4904604;29;20087;-85
2021/12/19 08:20:30;;;;;;;70.90;20.27;;;;;;;0.40;100.00;101054.66;4900484;29;20065;-85
2021/12/19 08:22:56;;;;;;;305.17;31.17;;;;;;;0.45;100.00;101068.19;4888733;29;20040;-83
2021/12/19 08:25:23;;;;;;;267.77;29.20;;;;;;;0.65;100.00;101092.16;4901845;29;20037;-83
2021/12/19 08:27:49;;;;;;;146.57;22.42;;;;;;;0.63;100.00;101081.91;4908726;29;20120;-84
2021/12/19 08:30:16;;;;;;;441.35;45.03;;;;;;;0.66;100.00;101088.66;4906189;29;20072;-88
2021/12/19 08:32:41;;;;;;;359.48;39.50;;;;;;;0.70;100.00;101091.00;4907410;29;20076;-86
2021/12/19 08:35:09;;;;;;;260.90;34.80;;;;;;;0.73;100.00;101096.94;4909310;29;20501;-84
2021/12/19 08:37:35;;;;;;;289.08;33.85;;;;;;;0.36;100.00;101068.66;4889011;29;20051;-87
2021/12/19 08:40:02;;;;;;;51.75;22.50;;;;;;;0.62;100.00;101090.59;4910086;29;20036;-88
2021/12/19 08:42:28;;;;;;;44.40;19.20;;;;;;;0.68;100.00;101100.59;4888199;29;20043;-86
2021/12/19 08:44:54;;;;;;;374.98;33.40;;;;;;;0.46;100.00;101087.94;4905867;29;20546;-87
2021/12/19 08:47:20;;;;;;;48.55;18.33;;;;;;;0.62;100.00;101094.91;4902082;29;20041;-87
2021/12/19 08:49:46;;;;;;;264.75;28.08;;;;;;;0.64;100.00;101090.50;4903100;29;20047;-89
2021/12/19 08:52:12;;;;;;;71.90;22.77;;;;;;;0.65;100.00;101089.56;4918800;29;20040;-89
2021/12/19 08:54:39;;;;;;;162.20;26.38;;;;;;;0.62;100.00;101076.81;4903620;29;20148;-85
2021/12/19 08:57:05;;;;;;;33.40;17.48;;;;;;;0.70;100.00;101070.34;4909309;29;20383;-86
2021/12/19 08:59:31;;;;;;;116.07;22.85;;;;;;;0.60;100.00;101053.66;4895481;29;20074;-86
2021/12/19 09:02:00;;;;;;;224.65;31.70;;;;;;;0.64;100.00;101055.16;4892509;29;20040;-86
2021/12/19 09:04:26;;;;;;;103.50;21.98;;;;;;;0.83;100.00;101088.63;4889909;29;20131;-87
2021/12/19 09:06:52;;;;;;;138.90;23.20;;;;;;;0.71;100.00;101086.69;4895706;29;20063;-87
2021/12/19 09:09:18;;;;;;;192.50;27.10;;;;;;;0.60;100.00;101071.75;4900619;29;20037;-87
2021/12/19 09:11:44;;;;;;;96.53;23.83;;;;;;;0.67;100.00;101083.44;4892098;29;20032;-87
2021/12/19 09:14:10;;;;;;;171.90;27.17;;;;;;;0.60;100.00;101060.56;4913065;29;20056;-89
2021/12/19 09:16:37;;;;;;;296.48;31.90;;;;;;;0.51;100.00;101061.88;4886010;29;20120;-89
2021/12/19 09:19:06;;;;;;;556.60;49.92;;;;;;;0.44;100.00;101086.34;4900933;29;20036;-89
2021/12/19 09:21:32;;;;;;;429.02;38.13;;;;;;;0.34;100.00;101076.47;4894180;29;20039;-88
2021/12/19 09:23:58;;;;;;;294.70;37.35;;;;;;;0.28;100.00;101092.28;4908120;29;20029;-88
2021/12/19 09:26:23;;;;;;;221.27;24.92;;;;;;;0.49;100.00;101094.72;4893988;29;20039;-86
2021/12/19 09:28:49;;;;;;;198.38;24.02;;;;;;;0.63;100.00;101079.34;4915834;29;20103;-84
2021/12/19 09:31:14;;;;;;;309.60;31.13;;;;;;;0.79;100.00;101094.06;4907687;29;20033;-86
2021/12/19 09:33:41;;;;;;;305.42;33.20;;;;;;;1.00;100.00;101099.84;4903333;29;20043;-89
2021/12/19 09:36:07;;;;;;;365.50;35.10;;;;;;;0.57;100.00;101092.56;4895659;29;20040;-88
2021/12/19 09:38:34;;;;;;;30.92;16.60;;;;;;;0.77;100.00;101085.53;4910050;29;20043;-87
2021/12/19 09:41:11;;;;;;;163.18;23.02;;;;;;;0.87;100.00;101107.41;4907437;29;20032;-87
2021/12/19 09:43:41;;;;;;;634.47;50.45;;;;;;;0.38;100.00;101088.31;4891294;29;20036;-90
2021/12/19 09:46:14;;;;;;;174.85;25.20;;;;;;;0.74;100.00;101109.78;4893111;29;20063;-88
2021/12/19 09:48:41;;;;;;;196.25;25.23;;;;;;;0.69;100.00;101091.94;4903142;29;20043;-90
2021/12/19 09:51:11;;;;;;;60.17;17.00;;;;;;;0.82;100.00;101102.47;4905674;29;20491;-86
2021/12/19 09:53:38;;;;;;;263.95;31.88;;;;;;;0.73;100.00;101117.63;4906138;29;20035;-90
2021/12/19 09:56:04;;;;;;;246.77;29.42;;;;;;;0.81;100.00;101089.63;4906722;29;20068;-91
2021/12/19 09:58:35;;;;;;;224.38;25.63;;;;;;;0.85;100.00;101089.38;4918023;29;20156;-89
2021/12/19 10:01:04;;;;;;;134.15;20.70;;;;;;;1.13;100.00;101115.53;4897096;29;20032;-86
2021/12/19 10:03:30;;;;;;;68.13;18.38;;;;;;;0.98;100.00;101083.56;4909997;29;20130;-86
2021/12/19 10:06:16;;;;;;;42.95;17.83;;;;;;;1.23;100.00;101108.13;4911402;29;20562;-86
2021/12/19 10:08:43;;;;;;;169.05;21.88;;;;;;;1.14;100.00;101112.03;4915488;29;20029;-87
2021/12/19 10:11:46;;;;;;;62.85;16.77;;;;;;;1.18;100.00;101092.00;4907952;29;20036;-86
2021/12/19 10:14:27;;;;;;;307.83;34.15;;;;;;;1.19;100.00;101102.28;4911702;29;20040;-86
2021/12/19 10:16:54;;;;;;;46.10;17.02;;;;;;;1.24;100.00;101089.94;4891537;29;20032;-86
2021/12/19 10:19:20;;;;;;;47.40;15.05;;;;;;;1.24;100.00;101091.66;4910095;29;20064;-88
2021/12/19 10:21:46;;;;;;;308.15;26.40;;;;;;;1.21;100.00;101105.63;4892965;29;20074;-86
2021/12/19 10:24:29;;;;;;;278.63;25.83;;;;;;;1.11;100.00;101101.84;4904436;29;20116;-85
2021/12/19 10:26:55;;;;;;;33.22;14.20;;;;;;;1.37;100.00;101089.25;4912916;29;20109;-86
2021/12/19 10:29:40;;;;;;;86.03;15.68;;;;;;;1.28;100.00;101057.78;4910134;29;20036;-86
2021/12/19 10:32:07;;;;;;;93.53;19.92;;;;;;;1.46;100.00;101080.16;4913057;29;20478;-87
2021/12/19 10:34:33;;;;;;;54.65;16.88;;;;;;;1.70;100.00;101077.94;4917678;29;20028;-86
2021/12/19 10:36:59;;;;;;;151.38;21.13;;;;;;;1.66;100.00;101074.69;4893434;29;20111;-86
2021/12/19 10:39:39;;;;;;;38.95;12.23;;;;;;;1.83;100.00;101073.75;4891896;29;20502;-88
2021/12/19 10:42:05;;;;;;;27.65;12.82;;;;;;;1.97;100.00;101078.16;4910143;29;20127;-87
2021/12/19 10:47:34;;;;;;;25.88;10.80;;;;;;;1.93;100.00;101079.25;4915088;29;20051;-84
2021/12/19 10:50:00;;;;;;;118.45;15.43;;;;;;;1.92;100.00;101072.41;4894785;29;20032;-85
2021/12/19 10:52:35;;;;;;;23.95;13.15;;;;;;;1.92;100.00;101084.50;4891836;29;20059;-86
2021/12/19 10:55:04;;;;;;;88.43;17.98;;;;;;;2.16;100.00;101090.03;4909218;29;20035;-85
2021/12/19 10:57:34;;;;;;;31.25;15.60;;;;;;;2.31;100.00;101085.72;4916205;29;20055;-85
2021/12/19 11:00:03;;;;;;;29.05;13.32;;;;;;;2.45;100.00;101090.06;4914421;29;20115;-85
2021/12/19 11:02:41;;;;;;;112.90;18.02;;;;;;;2.28;100.00;101078.13;4916535;29;20054;-87
2021/12/19 11:05:35;;;;;;;32.85;11.38;;;;;;;2.47;100.00;101071.84;4911342;29;20482;-86
2021/12/19 11:08:02;;;;;;;92.07;15.88;;;;;;;2.27;100.00;101066.09;4914501;29;20040;-85
2021/12/19 11:10:29;;;;;;;39.92;12.75;;;;;;;2.30;100.00;101070.25;4923858;29;20024;-87
2021/12/19 11:13:18;;;;;;;28.85;12.80;;;;;;;2.24;100.00;101045.53;4926714;29;20024;-87
2021/12/19 11:15:44;;;;;;;83.13;15.38;;;;;;;2.30;100.00;101062.50;4907415;29;20474;-86
2021/12/19 11:18:10;;;;;;;33.92;11.55;;;;;;;2.51;100.00;101078.50;4921852;29;20044;-86
2021/12/19 11:20:36;;;;;;;118.03;16.40;;;;;;;2.20;100.00;101059.59;4920897;29;20486;-85
2021/12/19 11:23:02;;;;;;;29.27;11.93;;;;;;;2.30;100.00;101071.09;4906544;29;20120;-86
2021/12/19 11:25:28;;;;;;;22.70;10.95;;;;;;;2.50;100.00;101069.06;4916142;29;20048;-84
2021/12/19 11:27:54;;;;;;;90.15;12.70;;;;;;;2.47;100.00;101053.72;4891526;29;20040;-85
2021/12/19 11:30:24;;;;;;;224.85;21.60;;;;;;;2.27;100.00;101063.50;4896700;29;20028;-85
2021/12/19 11:33:05;;;;;;;77.22;12.35;;;;;;;2.36;100.00;101065.56;4915047;29;20044;-86
2021/12/19 11:35:36;;;;;;;114.13;17.02;;;;;;;2.49;100.00;101052.69;4915215;29;20043;-89
2021/12/19 11:38:08;;;;;;;139.48;14.25;;;;;;;2.49;100.00;101044.06;4910742;29;20039;-85
2021/12/19 11:40:36;;;;;;;37.00;11.55;;;;;;;2.50;100.00;101041.41;4911063;29;20032;-86
2021/12/19 11:43:08;;;;;;;63.08;12.90;;;;;;;2.35;100.00;101027.59;4911219;29;20111;-87
2021/12/19 11:45:39;;;;;;;82.38;13.93;;;;;;;2.42;100.00;101035.81;4914309;29;20075;-86
2021/12/19 11:48:16;;;;;;;48.83;11.70;;;;;;;2.52;100.00;101036.97;4909232;29;20028;-88
2021/12/19 11:50:53;;;;;;;22.08;9.95;;;;;;;2.42;100.00;101039.28;4925732;29;20032;-85
2021/12/19 11:53:31;;;;;;;78.65;11.60;;;;;;;2.38;100.00;101024.84;4907289;29;20526;-86
2021/12/19 11:56:04;;;;;;;34.70;10.40;;;;;;;2.42;100.00;101031.50;4891629;29;20067;-86
2021/12/19 11:58:31;;;;;;;;;;;;;;;2.63;100.00;101036.31;4916037;29;20091;-86
2021/12/19 12:01:07;;;;;;;49.63;10.82;;;;;;;2.48;100.00;101016.50;4888823;29;19915;-86
2021/12/19 12:03:40;;;;;;;41.30;10.73;;;;;;;2.67;100.00;101032.59;4905075;29;20032;-86
2021/12/19 12:06:08;;;;;;;15.85;9.18;;;;;;;2.71;100.00;101034.06;4912946;29;20490;-86
2021/12/19 12:08:34;;;;;;;26.83;8.95;;;;;;;2.54;100.00;101019.53;4903901;29;20036;-85
2021/12/19 12:11:01;;;;;;;32.65;9.70;;;;;;;2.43;100.00;101030.56;4909386;29;20063;-86
2021/12/19 12:13:36;;;;;;;18.80;9.38;;;;;;;2.48;100.00;101006.13;4894101;29;20135;-86
2021/12/19 12:16:37;;;;;;;58.97;11.13;;;;;;;2.38;100.00;101032.59;4913909;29;20036;-87
2021/12/19 12:19:00;;;;;;;65.05;12.48;;;;;;;2.12;100.00;101006.47;4915102;29;20505;-86